Terminal Aerodrome Forecast
Issued by NWS Cleveland, OH

Home | Current Version | Previous Version | Graphics & Text | Print | Product List | Glossary On
Versions: 1 2 3 4 5 6 7 8 9 10 11 12 13 14 15 16 17 18
000
FTUS41 KCLE 150535
TAFCAK
TAF
KCAK 150535Z 1506/1606 VRB03KT P6SM FEW040 BKN150
     FM151000 20005KT P6SM OVC040
     FM152000 24012G20KT P6SM OVC015
     FM160100 26012KT P6SM SCT015 OVC035=

USA.gov is the U.S. government's official web portal to all federal, state and local government web resources and services.